Time;durP1;ratioP1;P1;durP2;ratioP2;P2;SDS_P1;SDS_P2;PMS_P1;PMS_P2;Temp;Humidity;BMP_temperature;BMP_pressure;BME280_temperature;BME280_humidity;BME280_pressure;Samples;Min_cycle;Max_cycle;Signal;HPM_P1;HPM_P2
2020/12/09 00:01:14;;;;;;;26.17;15.13;;;4.70;91.40;;;;;;5017925;28;20022;-82
2020/12/09 00:03:41;;;;;;;25.87;15.13;;;4.70;91.40;;;;;;5016439;28;20026;-82
2020/12/09 00:06:07;;;;;;;27.53;14.97;;;4.70;91.30;;;;;;5017556;28;20021;-82
2020/12/09 00:08:32;;;;;;;26.53;14.33;;;4.60;91.30;;;;;;5018005;28;20079;-82
2020/12/09 00:10:59;;;;;;;25.40;15.40;;;4.60;91.40;;;;;;5017344;28;20026;-81
2020/12/09 00:13:25;;;;;;;27.40;15.57;;;4.60;91.50;;;;;;5017192;28;20026;-81
2020/12/09 00:15:50;;;;;;;26.87;15.27;;;4.60;91.30;;;;;;5017842;28;20105;-81
2020/12/09 00:18:16;;;;;;;25.97;15.83;;;4.60;91.40;;;;;;5017963;28;20057;-82
2020/12/09 00:20:42;;;;;;;27.13;15.20;;;4.60;91.40;;;;;;5016411;28;20378;-82
2020/12/09 00:23:08;;;;;;;25.97;14.67;;;4.60;91.50;;;;;;5016260;28;20018;-81
2020/12/09 00:25:33;;;;;;;24.97;14.73;;;4.60;91.60;;;;;;5016096;28;20030;-81
2020/12/09 00:27:59;;;;;;;25.57;14.83;;;4.60;91.30;;;;;;5017435;28;20026;-82
2020/12/09 00:30:24;;;;;;;22.13;13.97;;;4.60;91.30;;;;;;5017065;28;20022;-82
2020/12/09 00:32:50;;;;;;;21.87;13.77;;;4.60;91.30;;;;;;5017724;28;20049;-82
2020/12/09 00:35:16;;;;;;;26.33;14.20;;;4.60;91.30;;;;;;5017881;28;20033;-82
2020/12/09 00:37:41;;;;;;;28.03;15.37;;;4.60;91.20;;;;;;5017527;28;20026;-82
2020/12/09 00:40:07;;;;;;;26.97;14.33;;;4.60;91.20;;;;;;5016864;28;20026;-81
2020/12/09 00:42:34;;;;;;;27.40;14.50;;;4.50;91.30;;;;;;5017300;28;20030;-82
2020/12/09 00:45:00;;;;;;;28.00;15.00;;;4.50;91.40;;;;;;5017851;28;20433;-82
2020/12/09 00:47:26;;;;;;;26.30;15.13;;;4.50;91.50;;;;;;5016612;28;20061;-82
2020/12/09 00:52:36;;;;;;;27.37;15.77;;;4.50;91.40;;;;;;5017686;28;20116;-82
2020/12/09 00:55:01;;;;;;;30.47;17.00;;;4.60;91.50;;;;;;5017348;28;20446;-81
2020/12/09 00:57:27;;;;;;;31.43;18.07;;;4.60;91.30;;;;;;5024747;28;20067;-81
2020/12/09 00:59:52;;;;;;;30.60;17.70;;;4.70;90.90;;;;;;5026359;28;20034;-81
2020/12/09 01:02:18;;;;;;;34.10;17.83;;;4.70;90.90;;;;;;5026054;28;20057;-82
2020/12/09 01:04:49;;;;;;;31.23;18.00;;;4.70;90.80;;;;;;5014981;28;20026;-81
2020/12/09 01:07:18;;;;;;;32.17;18.53;;;4.80;90.40;;;;;;5016197;28;20025;-81
2020/12/09 01:09:47;;;;;;;32.33;17.83;;;4.80;90.40;;;;;;5015820;28;20030;-81
2020/12/09 01:12:13;;;;;;;35.20;19.70;;;4.70;90.10;;;;;;5015731;28;20033;-81
2020/12/09 01:14:39;;;;;;;35.40;19.10;;;4.80;90.20;;;;;;5014824;28;20021;-82
2020/12/09 01:17:05;;;;;;;35.90;18.97;;;4.80;90.00;;;;;;5014667;28;20395;-81
2020/12/09 01:19:31;;;;;;;32.60;18.40;;;4.80;90.00;;;;;;5013883;28;20502;-81
2020/12/09 01:21:56;;;;;;;35.23;19.43;;;4.90;90.20;;;;;;5015650;28;20033;-82
2020/12/09 01:24:22;;;;;;;31.30;18.20;;;4.90;90.10;;;;;;5015225;28;20026;-81
2020/12/09 01:26:48;;;;;;;30.43;17.77;;;4.90;90.30;;;;;;5015890;28;20482;-82
2020/12/09 01:29:14;;;;;;;33.57;18.17;;;4.90;90.10;;;;;;5015343;28;20034;-81
2020/12/09 01:31:40;;;;;;;32.43;19.10;;;4.90;90.10;;;;;;5016083;28;20018;-81
2020/12/09 01:34:06;;;;;;;33.07;19.00;;;4.90;90.20;;;;;;5014295;28;20137;-81
2020/12/09 01:36:32;;;;;;;34.43;17.67;;;4.90;90.10;;;;;;5013796;28;20073;-81
2020/12/09 01:38:58;;;;;;;32.80;18.60;;;4.90;90.10;;;;;;5014810;28;20048;-82
2020/12/09 01:41:25;;;;;;;33.27;18.10;;;4.90;90.10;;;;;;5014836;28;20056;-82
2020/12/09 01:43:51;;;;;;;34.43;17.20;;;4.90;90.10;;;;;;5015026;28;20065;-82
2020/12/09 01:46:37;;;;;;;31.77;17.73;;;5.00;90.10;;;;;;5015057;28;20512;-82
2020/12/09 01:49:04;;;;;;;30.87;18.03;;;5.00;90.20;;;;;;5013864;28;20045;-81
2020/12/09 01:51:30;;;;;;;33.67;18.70;;;5.00;90.10;;;;;;5013553;28;20072;-82
2020/12/09 01:53:58;;;;;;;31.53;18.13;;;5.00;90.10;;;;;;5015019;28;20030;-82
2020/12/09 01:56:24;;;;;;;32.03;17.33;;;5.00;90.00;;;;;;5014822;28;20026;-82
2020/12/09 01:58:52;;;;;;;30.43;17.60;;;5.00;90.10;;;;;;5014486;28;20083;-82
2020/12/09 02:01:18;;;;;;;29.80;17.13;;;5.00;90.10;;;;;;5014102;28;20033;-82
2020/12/09 02:03:46;;;;;;;32.43;17.80;;;5.00;90.00;;;;;;5014679;28;20438;-82
2020/12/09 02:06:13;;;;;;;29.63;17.43;;;5.00;90.00;;;;;;5014918;28;20045;-81
2020/12/09 02:08:38;;;;;;;29.17;17.10;;;5.00;90.00;;;;;;5014745;28;20030;-82
2020/12/09 02:11:04;;;;;;;28.13;16.40;;;5.10;90.00;;;;;;5013799;28;20486;-82
2020/12/09 02:13:31;;;;;;;28.87;16.83;;;5.00;90.00;;;;;;5014627;28;20021;-82
2020/12/09 02:15:58;;;;;;;28.53;16.90;;;5.00;90.00;;;;;;5013476;28;20029;-82
2020/12/09 02:18:24;;;;;;;30.70;16.90;;;5.00;90.00;;;;;;5014452;28;20034;-82
2020/12/09 02:20:49;;;;;;;29.13;16.83;;;5.00;90.00;;;;;;5014254;28;20117;-82
2020/12/09 02:23:15;;;;;;;30.23;16.87;;;5.00;89.90;;;;;;5014433;28;20058;-82
2020/12/09 02:25:41;;;;;;;27.97;16.00;;;5.00;90.00;;;;;;5014789;28;20545;-82
2020/12/09 02:28:06;;;;;;;27.20;16.93;;;5.00;90.10;;;;;;5014286;28;20038;-82
2020/12/09 02:30:32;;;;;;;30.37;17.50;;;5.00;90.10;;;;;;5013682;28;20030;-82
2020/12/09 02:32:58;;;;;;;30.00;17.53;;;5.00;90.00;;;;;;5014826;28;20490;-82
2020/12/09 02:35:24;;;;;;;28.73;16.87;;;5.00;90.00;;;;;;5014774;28;20037;-81
2020/12/09 02:37:53;;;;;;;27.67;15.93;;;5.00;90.10;;;;;;5014415;28;20037;-82
2020/12/09 02:40:23;;;;;;;28.08;16.67;;;5.00;90.00;;;;;;5013855;28;20036;-82
2020/12/09 02:42:48;;;;;;;;;;;5.00;90.20;;;;;;5014825;28;20552;-82
2020/12/09 02:45:14;;;;;;;29.27;15.83;;;4.90;90.30;;;;;;5015789;28;19909;-82
2020/12/09 02:47:40;;;;;;;30.97;17.33;;;4.90;90.30;;;;;;5018732;28;20022;-82
2020/12/09 02:50:06;;;;;;;30.17;16.07;;;4.90;90.40;;;;;;5018488;28;20034;-82
2020/12/09 02:52:32;;;;;;;28.10;16.37;;;4.90;90.70;;;;;;5018883;28;20033;-82
2020/12/09 02:54:58;;;;;;;30.73;17.90;;;4.90;90.70;;;;;;5018824;28;20022;-82
2020/12/09 02:57:23;;;;;;;30.73;17.43;;;4.90;90.50;;;;;;5019436;28;20030;-82
2020/12/09 02:59:49;;;;;;;32.53;17.90;;;4.90;90.50;;;;;;5019459;28;20034;-82
2020/12/09 03:02:15;;;;;;;28.73;16.77;;;4.90;90.50;;;;;;5020042;28;20022;-81
2020/12/09 03:04:40;;;;;;;27.40;16.07;;;4.90;90.50;;;;;;5020325;28;20034;-82
2020/12/09 03:07:06;;;;;;;28.97;16.50;;;4.90;90.40;;;;;;5020203;28;20022;-82
2020/12/09 03:09:31;;;;;;;30.63;17.13;;;5.00;90.40;;;;;;5020078;28;20533;-82
2020/12/09 03:11:57;;;;;;;29.17;16.40;;;5.00;90.20;;;;;;5020494;28;20053;-82
2020/12/09 03:14:23;;;;;;;34.17;17.77;;;5.00;90.20;;;;;;5021546;28;20029;-82
2020/12/09 03:16:49;;;;;;;29.47;16.77;;;5.00;90.30;;;;;;5023055;28;20407;-83
2020/12/09 03:19:14;;;;;;;30.17;17.97;;;5.00;90.40;;;;;;5021600;28;20037;-81
2020/12/09 03:21:40;;;;;;;29.60;16.67;;;5.00;90.40;;;;;;5019183;28;20217;-82
2020/12/09 03:24:07;;;;;;;31.43;17.50;;;5.00;90.40;;;;;;5017693;28;20040;-82
2020/12/09 03:26:33;;;;;;;26.73;16.13;;;4.90;90.40;;;;;;5017793;28;20044;-82
2020/12/09 03:28:59;;;;;;;29.70;17.50;;;5.00;90.50;;;;;;5017228;28;20038;-82
2020/12/09 03:31:25;;;;;;;29.27;16.73;;;5.00;90.40;;;;;;5016929;28;20109;-82
2020/12/09 03:33:50;;;;;;;31.57;17.50;;;4.90;90.50;;;;;;5017268;28;20540;-82
2020/12/09 03:36:16;;;;;;;29.10;16.23;;;4.90;90.50;;;;;;5017670;28;20029;-82
2020/12/09 03:38:42;;;;;;;28.30;16.50;;;4.90;90.50;;;;;;5017301;28;20026;-82
2020/12/09 03:41:08;;;;;;;31.33;17.40;;;4.90;90.50;;;;;;5015561;28;20372;-82
2020/12/09 03:43:33;;;;;;;31.33;17.63;;;4.90;90.60;;;;;;5017896;28;20105;-81
2020/12/09 03:45:59;;;;;;;31.90;17.77;;;4.90;90.40;;;;;;5017578;28;20018;-82
2020/12/09 03:48:24;;;;;;;27.63;17.03;;;4.90;90.40;;;;;;5016937;28;20030;-82
2020/12/09 03:50:50;;;;;;;31.43;17.60;;;4.90;90.50;;;;;;5016747;28;20280;-82
2020/12/09 03:53:16;;;;;;;29.03;16.10;;;4.90;90.30;;;;;;5015806;28;20018;-82
2020/12/09 03:55:41;;;;;;;30.23;17.00;;;4.90;90.30;;;;;;5016558;28;20210;-82
2020/12/09 03:58:07;;;;;;;30.80;17.00;;;4.90;90.40;;;;;;5017242;28;20539;-82
2020/12/09 04:00:32;;;;;;;29.37;17.00;;;4.90;90.40;;;;;;5016744;28;20022;-82
2020/12/09 04:02:58;;;;;;;31.07;17.40;;;4.90;90.30;;;;;;5017148;28;20474;-82
2020/12/09 04:05:24;;;;;;;28.20;16.93;;;4.90;90.30;;;;;;5015540;28;20475;-81
2020/12/09 04:07:50;;;;;;;32.90;17.87;;;4.90;90.20;;;;;;5015766;28;20082;-82
2020/12/09 04:10:17;;;;;;;29.40;17.70;;;4.90;90.20;;;;;;5016952;28;20093;-82
2020/12/09 04:12:42;;;;;;;30.70;17.83;;;4.90;90.30;;;;;;5016865;28;20021;-82
2020/12/09 04:15:08;;;;;;;30.93;17.27;;;4.90;90.20;;;;;;5016849;28;20029;-82
2020/12/09 04:17:34;;;;;;;32.03;17.93;;;4.90;90.20;;;;;;5017310;28;20045;-81
2020/12/09 04:19:59;;;;;;;30.23;18.17;;;4.90;90.20;;;;;;5017159;28;20034;-82
2020/12/09 04:22:25;;;;;;;32.60;18.30;;;4.90;90.30;;;;;;5017284;28;20132;-82
2020/12/09 04:24:51;;;;;;;30.13;18.40;;;4.80;90.50;;;;;;5017429;28;20033;-82
2020/12/09 04:27:16;;;;;;;30.63;18.43;;;4.80;90.50;;;;;;5017933;28;20026;-82
2020/12/09 04:29:42;;;;;;;35.43;19.80;;;4.80;90.50;;;;;;5016797;28;20030;-81
2020/12/09 04:32:08;;;;;;;32.73;18.10;;;4.80;90.30;;;;;;5017843;28;20394;-82
2020/12/09 04:34:34;;;;;;;32.00;18.23;;;4.90;90.30;;;;;;5017397;28;20065;-81
2020/12/09 04:37:00;;;;;;;32.60;18.40;;;4.80;90.30;;;;;;5017451;28;20025;-82
2020/12/09 04:39:26;;;;;;;33.57;18.70;;;4.80;90.30;;;;;;5017426;28;20533;-82
2020/12/09 04:41:52;;;;;;;33.73;18.57;;;4.90;90.20;;;;;;5017156;28;20026;-82
2020/12/09 04:44:18;;;;;;;33.47;19.17;;;4.90;90.40;;;;;;5016951;28;20034;-82
2020/12/09 04:46:49;;;;;;;31.07;17.97;;;4.90;90.20;;;;;;5017106;28;20033;-82
2020/12/09 04:49:20;;;;;;;33.23;18.70;;;4.90;90.30;;;;;;5016509;28;20032;-83
2020/12/09 04:51:59;;;;;;;34.93;18.77;;;4.90;90.60;;;;;;5022756;28;20047;-81
2020/12/09 04:54:46;;;;;;;35.10;18.83;;;4.90;90.20;;;;;;5028753;28;20026;-81
2020/12/09 04:57:21;;;;;;;32.57;19.03;;;4.90;90.30;;;;;;5030154;28;20037;-82
2020/12/09 05:00:00;;;;;;;33.30;18.47;;;4.90;90.30;;;;;;5017054;28;20030;-82
2020/12/09 05:02:42;;;;;;;33.85;18.45;;;4.80;90.40;;;;;;5015517;28;20041;-82
2020/12/09 05:05:11;;;;;;;33.53;18.73;;;4.80;90.30;;;;;;5015123;28;20030;-82
2020/12/09 05:07:37;;;;;;;32.90;18.95;;;4.80;90.40;;;;;;5015112;28;20075;-82
2020/12/09 05:10:08;;;;;;;34.63;19.43;;;4.80;90.40;;;;;;5014577;28;20101;-82
2020/12/09 05:12:46;;;;;;;34.07;18.77;;;4.80;90.40;;;;;;5015548;28;20025;-82
2020/12/09 05:15:19;;;;;;;33.87;19.10;;;4.70;90.30;;;;;;5015687;28;20022;-81
2020/12/09 05:18:05;;;;;;;36.63;19.60;;;4.70;90.50;;;;;;5014241;28;20054;-81
2020/12/09 05:20:40;;;;;;;35.23;19.77;;;4.80;90.40;;;;;;5015687;28;20534;-82
2020/12/09 05:23:10;;;;;;;34.80;18.80;;;4.80;90.30;;;;;;5014987;28;20022;-82
2020/12/09 05:25:38;;;;;;;35.47;19.63;;;4.80;90.20;;;;;;5015120;28;20510;-82
2020/12/09 05:28:05;;;;;;;34.07;20.03;;;4.80;90.20;;;;;;5014796;28;20478;-82
2020/12/09 05:30:42;;;;;;;36.37;20.43;;;4.80;90.10;;;;;;5014168;28;20018;-83
2020/12/09 05:33:17;;;;;;;37.10;20.20;;;4.80;90.60;;;;;;5013691;28;20497;-82
2020/12/09 05:35:43;;;;;;;32.60;19.47;;;4.70;90.10;;;;;;5015803;28;20034;-82
2020/12/09 05:38:18;;;;;;;36.90;20.00;;;4.70;90.10;;;;;;5013434;28;20050;-83
2020/12/09 05:40:46;;;;;;;35.77;20.20;;;4.70;90.20;;;;;;5012782;28;20092;-82
2020/12/09 05:43:13;;;;;;;39.00;21.00;;;4.70;90.30;;;;;;5013469;28;20395;-82
2020/12/09 05:45:40;;;;;;;38.93;20.93;;;4.60;90.00;;;;;;5014685;28;20058;-83
2020/12/09 05:48:12;;;;;;;41.07;22.30;;;4.60;90.10;;;;;;5014933;28;20387;-83
2020/12/09 05:50:58;;;;;;;38.73;21.77;;;4.60;90.00;;;;;;5013901;28;20026;-83
2020/12/09 05:53:26;;;;;;;40.73;22.20;;;4.60;89.90;;;;;;5014389;28;20537;-82
2020/12/09 05:56:07;;;;;;;48.07;26.27;;;4.60;89.90;;;;;;5014874;28;20104;-82
2020/12/09 05:58:33;;;;;;;38.90;22.20;;;4.60;89.80;;;;;;5014807;28;20028;-82
2020/12/09 06:01:04;;;;;;;42.57;22.60;;;4.60;90.10;;;;;;5014016;28;20085;-83
2020/12/09 06:03:31;;;;;;;43.50;23.37;;;4.60;89.80;;;;;;5014970;28;20025;-82
2020/12/09 06:06:22;;;;;;;41.90;22.90;;;4.60;90.10;;;;;;5014956;28;20110;-82
2020/12/09 06:08:48;;;;;;;42.07;22.10;;;4.60;89.40;;;;;;5014194;28;20049;-83
2020/12/09 06:11:36;;;;;;;43.47;23.23;;;4.60;89.50;;;;;;5014711;28;20455;-82
2020/12/09 06:14:02;;;;;;;45.33;23.60;;;4.50;89.50;;;;;;5014343;28;20041;-82
2020/12/09 06:16:28;;;;;;;42.60;23.00;;;4.50;89.60;;;;;;5014455;28;20022;-82
2020/12/09 06:18:56;;;;;;;44.93;23.77;;;4.60;89.70;;;;;;5014946;28;20033;-81
2020/12/09 06:21:23;;;;;;;46.13;24.70;;;4.50;89.30;;;;;;5018710;28;20030;-81
2020/12/09 06:23:51;;;;;;;47.80;26.60;;;4.50;89.30;;;;;;5018121;28;20490;-82
2020/12/09 06:26:17;;;;;;;46.83;24.73;;;4.50;89.20;;;;;;5018681;28;20458;-82
2020/12/09 06:28:45;;;;;;;48.63;25.13;;;4.50;89.10;;;;;;5018161;28;20026;-81
2020/12/09 06:31:21;;;;;;;50.20;26.03;;;4.40;88.60;;;;;;5016219;28;20482;-81
2020/12/09 06:33:52;;;;;;;50.80;25.90;;;4.40;89.00;;;;;;5018461;28;20050;-82
2020/12/09 06:36:30;;;;;;;49.33;25.57;;;4.40;88.20;;;;;;5018563;28;20075;-82
2020/12/09 06:39:07;;;;;;;48.37;25.37;;;4.40;88.90;;;;;;5017724;28;20029;-81
2020/12/09 06:41:36;;;;;;;48.90;26.20;;;4.40;88.00;;;;;;5018430;28;20406;-82
2020/12/09 06:44:08;;;;;;;54.55;27.90;;;4.30;88.40;;;;;;5018166;28;20037;-81
2020/12/09 06:46:38;;;;;;;51.37;25.77;;;4.30;88.30;;;;;;5018508;28;20022;-81
2020/12/09 06:49:04;;;;;;;56.67;28.17;;;4.30;88.80;;;;;;5017586;28;20471;-82
2020/12/09 06:51:38;;;;;;;53.07;26.77;;;4.20;89.50;;;;;;5018341;28;20475;-82
2020/12/09 06:54:14;;;;;;;75.20;36.87;;;4.20;89.30;;;;;;5018308;28;20026;-80
2020/12/09 06:56:41;;;;;;;60.77;29.80;;;4.20;90.20;;;;;;5018402;28;20026;-81
2020/12/09 06:59:40;;;;;;;61.87;30.03;;;4.20;89.60;;;;;;5015985;28;20391;-81
2020/12/09 07:02:07;;;;;;;58.53;30.27;;;4.20;89.20;;;;;;4985069;28;20490;-81
2020/12/09 07:04:58;;;;;;;57.33;28.90;;;4.20;89.50;;;;;;5019144;28;20638;-80
2020/12/09 07:07:44;;;;;;;59.03;28.77;;;4.20;89.70;;;;;;5020140;28;20026;-80
2020/12/09 07:10:17;;;;;;;60.53;29.93;;;4.20;89.20;;;;;;5017490;28;20101;-81
2020/12/09 07:12:42;;;;;;;59.83;30.73;;;4.30;89.10;;;;;;5017411;28;20391;-80
2020/12/09 07:15:08;;;;;;;70.03;33.40;;;4.20;89.00;;;;;;5017504;28;20071;-81
2020/12/09 07:17:34;;;;;;;67.43;33.03;;;4.20;88.40;;;;;;5017543;28;20022;-81
2020/12/09 07:20:00;;;;;;;66.53;32.77;;;4.20;88.60;;;;;;5017490;28;20502;-81
2020/12/09 07:22:27;;;;;;;62.90;31.13;;;4.20;88.50;;;;;;5017452;28;20495;-83
2020/12/09 07:24:54;;;;;;;70.33;33.13;;;4.20;87.80;;;;;;5017180;28;20490;-83
2020/12/09 07:27:23;;;;;;;64.10;31.17;;;4.20;87.30;;;;;;5017617;28;20029;-81
2020/12/09 07:29:49;;;;;;;66.93;32.50;;;4.20;87.20;;;;;;5016799;28;20488;-82
2020/12/09 07:32:19;;;;;;;69.37;32.80;;;4.20;86.90;;;;;;5017614;28;20033;-83
2020/12/09 07:35:07;;;;;;;67.30;31.50;;;4.20;87.00;;;;;;5016340;28;20482;-83
2020/12/09 07:37:38;;;;;;;67.85;30.83;;;4.00;86.70;;;;;;5017446;28;20026;-82
2020/12/09 07:40:29;;;;;;;66.77;31.07;;;3.90;87.00;;;;;;5016665;28;20036;-83
2020/12/09 07:43:20;;;;;;;63.23;30.00;;;3.90;87.00;;;;;;5017026;28;20026;-83
2020/12/09 07:45:46;;;;;;;64.20;30.80;;;3.90;86.70;;;;;;5014432;28;20065;-83
2020/12/09 07:48:14;;;;;;;63.03;30.50;;;3.90;87.00;;;;;;5017031;28;20022;-82
2020/12/09 07:50:47;;;;;;;62.47;29.63;;;3.90;86.90;;;;;;5016528;28;20533;-83
2020/12/09 07:53:13;;;;;;;61.73;29.87;;;3.90;87.10;;;;;;5016320;28;20245;-83
2020/12/09 07:55:39;;;;;;;68.57;31.37;;;3.90;87.00;;;;;;5016903;28;20117;-83
2020/12/09 07:58:14;;;;;;;65.07;30.50;;;3.90;87.30;;;;;;5017400;28;20293;-83
2020/12/09 08:00:40;;;;;;;73.37;33.17;;;3.70;87.40;;;;;;5016961;28;20046;-83
2020/12/09 08:03:15;;;;;;;81.33;35.23;;;3.70;87.70;;;;;;5016923;28;20025;-83
2020/12/09 08:05:41;;;;;;;76.03;34.13;;;3.60;88.50;;;;;;5017419;28;20068;-83
2020/12/09 08:08:12;;;;;;;78.60;36.67;;;3.60;88.30;;;;;;5017083;28;20033;-83
2020/12/09 08:10:39;;;;;;;82.37;36.43;;;3.60;88.00;;;;;;5016921;28;20026;-83
2020/12/09 08:13:12;;;;;;;78.80;36.03;;;3.50;87.90;;;;;;5017053;28;20391;-83
2020/12/09 08:15:39;;;;;;;77.27;35.77;;;3.60;88.10;;;;;;5017217;28;20033;-83
2020/12/09 08:18:06;;;;;;;74.90;34.83;;;3.60;88.10;;;;;;5017450;28;20014;-83
2020/12/09 08:20:48;;;;;;;71.50;34.17;;;3.60;87.40;;;;;;5016204;28;20026;-82
2020/12/09 08:23:14;;;;;;;78.77;35.07;;;3.50;87.80;;;;;;5017149;28;20048;-83
2020/12/09 08:25:51;;;;;;;78.40;34.87;;;3.30;88.20;;;;;;5016790;28;20538;-83
2020/12/09 08:28:25;;;;;;;75.87;34.33;;;3.40;88.40;;;;;;5017317;28;20479;-83
2020/12/09 08:30:53;;;;;;;77.00;35.60;;;3.40;88.80;;;;;;5016743;28;20463;-83
2020/12/09 08:33:38;;;;;;;79.80;36.40;;;3.40;88.30;;;;;;5016822;28;20022;-83
2020/12/09 08:36:14;;;;;;;78.67;37.20;;;3.40;87.80;;;;;;5016841;28;20054;-83
2020/12/09 08:38:41;;;;;;;86.73;36.97;;;3.40;87.40;;;;;;5016961;28;20022;-83
2020/12/09 08:41:12;;;;;;;77.63;36.57;;;3.40;87.40;;;;;;5016427;28;20026;-83
2020/12/09 08:43:40;;;;;;;78.00;36.03;;;3.30;87.70;;;;;;5019229;28;20052;-82
2020/12/09 08:46:07;;;;;;;76.77;35.50;;;3.30;87.50;;;;;;5031149;28;20026;-82
2020/12/09 08:48:38;;;;;;;68.53;32.70;;;3.40;87.20;;;;;;5030830;28;20026;-82
2020/12/09 08:51:04;;;;;;;73.63;34.10;;;3.50;86.70;;;;;;5023638;28;20032;-82
2020/12/09 08:53:30;;;;;;;67.67;32.07;;;3.60;86.10;;;;;;5015795;28;20071;-83
2020/12/09 08:55:56;;;;;;;67.57;32.27;;;3.60;85.90;;;;;;5015619;28;20018;-82
2020/12/09 08:58:22;;;;;;;68.90;33.20;;;3.60;85.20;;;;;;5015852;28;20463;-82
2020/12/09 09:00:48;;;;;;;69.73;33.83;;;3.70;85.40;;;;;;5014989;28;20022;-83
2020/12/09 09:03:19;;;;;;;73.20;32.80;;;3.70;85.10;;;;;;5015277;28;20030;-82
2020/12/09 09:05:46;;;;;;;71.17;32.67;;;3.70;85.30;;;;;;5015690;28;20022;-82
2020/12/09 09:08:15;;;;;;;70.50;32.87;;;3.60;85.40;;;;;;5015086;28;20433;-82
2020/12/09 09:10:42;;;;;;;65.97;31.45;;;3.60;85.00;;;;;;5014618;28;20034;-83
2020/12/09 09:13:09;;;;;;;69.23;33.30;;;3.70;85.50;;;;;;5015225;28;20088;-83
2020/12/09 09:15:35;;;;;;;73.07;34.40;;;3.70;85.60;;;;;;5015193;28;20030;-82
2020/12/09 09:18:02;;;;;;;75.77;36.23;;;3.70;85.30;;;;;;5014540;28;20367;-83
2020/12/09 09:20:28;;;;;;;79.53;36.57;;;3.60;85.10;;;;;;5014643;28;20029;-83
2020/12/09 09:22:54;;;;;;;81.57;36.70;;;3.60;85.40;;;;;;5014843;28;20061;-82
2020/12/09 09:25:20;;;;;;;75.77;35.87;;;3.70;85.30;;;;;;5013815;28;20076;-83
2020/12/09 09:27:47;;;;;;;74.83;36.53;;;3.70;85.00;;;;;;5014954;28;20026;-82
2020/12/09 09:30:13;;;;;;;77.23;36.60;;;3.70;84.90;;;;;;5014260;28;20037;-82
2020/12/09 09:32:38;;;;;;;74.83;36.37;;;3.70;85.10;;;;;;5015152;28;20022;-83
2020/12/09 09:35:05;;;;;;;76.60;36.63;;;3.80;85.40;;;;;;5014745;28;20034;-83
2020/12/09 09:37:30;;;;;;;72.83;34.50;;;3.70;84.60;;;;;;5013632;28;20030;-83
2020/12/09 09:39:56;;;;;;;72.67;35.33;;;3.60;85.00;;;;;;5014518;28;20053;-82
2020/12/09 09:42:22;;;;;;;71.97;33.47;;;3.60;85.20;;;;;;5014833;28;20025;-82
2020/12/09 09:44:49;;;;;;;72.43;35.40;;;3.60;85.60;;;;;;5014497;28;20479;-83
2020/12/09 09:47:15;;;;;;;72.23;33.73;;;3.60;85.80;;;;;;5014865;28;20033;-83
2020/12/09 09:49:41;;;;;;;71.57;34.53;;;3.50;85.60;;;;;;5014341;28;20030;-83
2020/12/09 09:52:07;;;;;;;67.67;32.87;;;3.40;85.90;;;;;;5015104;28;20360;-83
2020/12/09 09:54:33;;;;;;;74.37;33.40;;;3.40;85.80;;;;;;5014121;28;20463;-83
2020/12/09 09:56:58;;;;;;;74.07;32.73;;;3.40;85.90;;;;;;5014771;28;20053;-83
2020/12/09 09:59:24;;;;;;;75.10;34.27;;;3.50;86.10;;;;;;5014246;28;20029;-82
2020/12/09 10:01:51;;;;;;;69.80;33.20;;;3.40;85.60;;;;;;5012647;28;20036;-83
2020/12/09 10:04:17;;;;;;;68.43;33.17;;;3.50;86.10;;;;;;5014156;28;20052;-83
2020/12/09 10:06:43;;;;;;;68.23;32.70;;;3.50;85.60;;;;;;5014428;28;20096;-82
2020/12/09 10:09:09;;;;;;;76.70;35.30;;;3.50;85.60;;;;;;5013788;28;20025;-83
2020/12/09 10:11:39;;;;;;;74.20;34.80;;;3.60;85.90;;;;;;5014176;28;20041;-82
2020/12/09 10:14:08;;;;;;;69.47;34.20;;;3.60;85.80;;;;;;5014902;28;20022;-82
2020/12/09 10:16:34;;;;;;;71.57;33.63;;;3.70;86.00;;;;;;5014532;28;20046;-82
2020/12/09 10:19:01;;;;;;;78.30;35.93;;;3.60;85.80;;;;;;5014033;28;20030;-83
2020/12/09 10:21:31;;;;;;;78.03;36.60;;;3.60;86.00;;;;;;5014546;28;20510;-83
2020/12/09 10:23:58;;;;;;;81.60;37.17;;;3.70;86.00;;;;;;5014463;28;20037;-83
2020/12/09 10:26:32;;;;;;;70.47;35.23;;;3.70;85.80;;;;;;5014217;28;20026;-82
2020/12/09 10:29:01;;;;;;;76.67;36.97;;;3.70;85.70;;;;;;5011811;28;20064;-83
2020/12/09 10:31:42;;;;;;;84.20;37.40;;;3.80;85.40;;;;;;5014161;28;20236;-83
2020/12/09 10:34:10;;;;;;;76.33;35.33;;;3.70;85.10;;;;;;5014183;28;20040;-83
2020/12/09 10:36:37;;;;;;;73.37;34.67;;;3.80;85.40;;;;;;5014118;28;20025;-82
2020/12/09 10:39:05;;;;;;;72.47;35.00;;;3.70;85.00;;;;;;5013797;28;20026;-82
2020/12/09 10:41:31;;;;;;;78.87;35.93;;;3.70;86.40;;;;;;5014601;28;20036;-83
2020/12/09 10:43:56;;;;;;;73.97;36.10;;;3.70;85.40;;;;;;5014346;28;20026;-82
2020/12/09 10:46:30;;;;;;;73.60;35.43;;;3.80;86.00;;;;;;5014377;28;20030;-82
2020/12/09 10:48:57;;;;;;;73.70;36.13;;;3.80;85.50;;;;;;5014012;28;20836;-82
2020/12/09 10:51:22;;;;;;;77.43;36.03;;;3.80;84.80;;;;;;5014168;28;20549;-83
2020/12/09 10:53:48;;;;;;;80.40;36.70;;;3.80;85.10;;;;;;5014583;28;20030;-83
2020/12/09 10:56:13;;;;;;;79.87;37.97;;;3.80;85.10;;;;;;5014573;28;20085;-82
2020/12/09 10:58:39;;;;;;;80.53;38.10;;;3.70;85.20;;;;;;5014305;28;20537;-83
2020/12/09 11:01:05;;;;;;;80.17;37.90;;;3.70;86.20;;;;;;5012164;28;20036;-82
2020/12/09 11:03:30;;;;;;;82.43;38.70;;;3.80;85.50;;;;;;5014431;28;20030;-83
2020/12/09 11:05:56;;;;;;;79.87;37.50;;;3.80;86.20;;;;;;5016555;28;20526;-82
2020/12/09 11:08:21;;;;;;;73.77;35.60;;;3.80;85.40;;;;;;5018052;28;20088;-83
2020/12/09 11:10:48;;;;;;;58.43;30.30;;;3.90;86.10;;;;;;5017224;28;20030;-83
2020/12/09 11:13:14;;;;;;;69.57;34.17;;;4.10;84.60;;;;;;5016716;28;20076;-82
2020/12/09 11:15:39;;;;;;;58.53;28.70;;;4.10;84.80;;;;;;5017448;28;20113;-83
2020/12/09 11:18:05;;;;;;;48.23;25.87;;;4.10;82.80;;;;;;5016669;28;20026;-83
2020/12/09 11:20:33;;;;;;;52.30;25.90;;;4.10;82.00;;;;;;5017178;28;20479;-83
2020/12/09 11:22:58;;;;;;;50.87;26.97;;;4.20;82.80;;;;;;5017646;28;20486;-83
2020/12/09 11:25:24;;;;;;;60.87;28.50;;;4.20;82.30;;;;;;5017680;28;20037;-83
2020/12/09 11:27:50;;;;;;;51.10;27.73;;;4.30;82.70;;;;;;5018245;28;20022;-83
2020/12/09 11:30:17;;;;;;;48.97;26.87;;;4.30;82.80;;;;;;5016841;28;20033;-83
2020/12/09 11:32:43;;;;;;;49.33;26.60;;;4.40;82.90;;;;;;5017598;28;20022;-83
2020/12/09 11:35:09;;;;;;;48.37;27.00;;;4.40;82.00;;;;;;5016877;28;20034;-83
2020/12/09 11:37:35;;;;;;;45.53;25.37;;;4.50;82.00;;;;;;5017467;28;20026;-83
2020/12/09 11:40:01;;;;;;;50.57;26.60;;;4.50;82.00;;;;;;5017744;28;20380;-83
2020/12/09 11:42:26;;;;;;;50.03;26.67;;;4.50;81.20;;;;;;5018009;28;20033;-83
2020/12/09 11:44:52;;;;;;;46.97;26.77;;;4.50;81.50;;;;;;5018628;28;20037;-82
2020/12/09 11:47:20;;;;;;;48.03;26.07;;;4.60;81.40;;;;;;5016824;28;20391;-83
2020/12/09 11:49:46;;;;;;;48.07;26.73;;;4.60;81.10;;;;;;5017591;28;20030;-82
2020/12/09 11:52:11;;;;;;;43.30;24.60;;;4.60;81.10;;;;;;5017838;28;20018;-83
2020/12/09 11:54:37;;;;;;;44.87;24.57;;;4.60;80.80;;;;;;5017813;28;20050;-83
2020/12/09 11:57:03;;;;;;;42.80;24.73;;;4.60;80.20;;;;;;5018307;28;20371;-82
2020/12/09 11:59:29;;;;;;;49.13;26.60;;;4.50;80.40;;;;;;5016345;28;20076;-83
2020/12/09 12:01:55;;;;;;;49.00;25.80;;;4.50;80.50;;;;;;5017746;28;20026;-83
2020/12/09 12:04:20;;;;;;;48.87;26.17;;;4.50;81.80;;;;;;5016823;28;20471;-82
2020/12/09 12:06:46;;;;;;;53.13;26.43;;;4.60;81.20;;;;;;5017611;28;20034;-83
2020/12/09 12:09:12;;;;;;;47.70;25.77;;;4.50;81.20;;;;;;5017366;28;20895;-82
2020/12/09 12:11:37;;;;;;;43.57;24.40;;;4.60;80.20;;;;;;5018034;28;20030;-83
2020/12/09 12:14:03;;;;;;;48.47;26.67;;;4.50;80.40;;;;;;5017765;28;20112;-83
2020/12/09 12:16:29;;;;;;;47.53;26.00;;;4.60;81.00;;;;;;5016883;28;20029;-83
2020/12/09 12:18:55;;;;;;;48.20;26.17;;;4.60;80.50;;;;;;5016271;28;20033;-83
2020/12/09 12:21:23;;;;;;;43.70;24.70;;;4.60;81.10;;;;;;5017545;28;20026;-83
2020/12/09 12:23:49;;;;;;;47.27;25.90;;;4.50;81.20;;;;;;5016184;28;20030;-83
2020/12/09 12:26:16;;;;;;;48.70;26.87;;;4.60;81.10;;;;;;5017256;28;20053;-83
2020/12/09 12:28:42;;;;;;;49.60;27.23;;;4.60;81.40;;;;;;5017722;28;20383;-83
2020/12/09 12:31:15;;;;;;;49.53;26.40;;;4.70;81.30;;;;;;5017048;28;20033;-83
2020/12/09 12:33:41;;;;;;;47.53;25.30;;;4.70;80.70;;;;;;5018167;28;20038;-82
2020/12/09 12:36:11;;;;;;;44.80;25.93;;;4.70;80.10;;;;;;5026787;28;20048;-82
2020/12/09 12:38:37;;;;;;;44.43;24.30;;;4.70;79.90;;;;;;5027466;28;20018;-82
2020/12/09 12:41:04;;;;;;;49.80;26.60;;;4.70;79.40;;;;;;5022906;28;20053;-83
2020/12/09 12:43:30;;;;;;;49.60;25.70;;;4.70;79.10;;;;;;5016760;28;20119;-83
2020/12/09 12:45:55;;;;;;;47.10;26.23;;;4.70;79.70;;;;;;5016680;28;20478;-82